Time;durP1;ratioP1;P1;durP2;ratioP2;P2;SDS_P1;SDS_P2;PMS_P1;PMS_P2;Temp;Humidity;BMP_temperature;BMP_pressure;BME280_temperature;BME280_humidity;BME280_pressure;Samples;Min_cycle;Max_cycle;Signal;HPM_P1;HPM_P2
2020/12/04 00:02:12;;;;;;;5.00;2.67;;;9.50;68.50;;;;;;2588564;53;21024;-72
2020/12/04 00:04:41;;;;;;;6.12;3.75;;;9.40;68.00;;;;;;2589773;53;20992;-72
2020/12/04 00:07:07;;;;;;;6.55;4.00;;;9.40;67.30;;;;;;2574399;53;21055;-72
2020/12/04 00:09:33;;;;;;;6.90;4.07;;;9.30;66.70;;;;;;2346517;53;21004;-72
2020/12/04 00:12:00;;;;;;;7.45;4.57;;;9.30;66.40;;;;;;2588762;53;21031;-72
2020/12/04 00:14:26;;;;;;;8.50;5.35;;;9.20;66.00;;;;;;2350931;53;20957;-71
2020/12/04 00:16:54;;;;;;;7.90;4.72;;;9.10;65.70;;;;;;2575604;53;20917;-71
2020/12/04 00:19:21;;;;;;;8.60;5.28;;;9.00;65.60;;;;;;2330895;54;20966;-73
2020/12/04 00:21:50;;;;;;;9.38;5.78;;;8.90;65.70;;;;;;2340046;53;20925;-72
2020/12/04 00:24:16;;;;;;;10.57;6.30;;;8.90;65.60;;;;;;2589274;53;21019;-72
2020/12/04 00:26:42;;;;;;;9.50;5.85;;;8.70;65.30;;;;;;2350162;53;21286;-72
2020/12/04 00:29:10;;;;;;;10.07;6.40;;;8.70;65.20;;;;;;2336818;53;21091;-72
2020/12/04 00:31:37;;;;;;;10.70;6.20;;;8.50;64.90;;;;;;2589749;53;20929;-72
2020/12/04 00:34:04;;;;;;;8.65;5.28;;;8.40;64.90;;;;;;2342289;53;21000;-72
2020/12/04 00:36:30;;;;;;;6.62;4.10;;;8.40;65.30;;;;;;2342948;53;20952;-72
2020/12/04 00:38:57;;;;;;;7.95;4.40;;;8.30;65.50;;;;;;2588807;53;20975;-72
2020/12/04 00:41:23;;;;;;;9.45;4.85;;;8.20;65.70;;;;;;2562024;53;20972;-72
2020/12/04 00:43:55;;;;;;;8.93;5.20;;;8.20;65.70;;;;;;2589680;53;20924;-72
2020/12/04 00:46:21;;;;;;;7.12;4.87;;;8.10;65.80;;;;;;2588568;53;22085;-72
2020/12/04 00:48:47;;;;;;;8.13;4.50;;;8.10;65.80;;;;;;2342673;53;20928;-72
2020/12/04 00:51:13;;;;;;;9.55;4.40;;;8.00;65.80;;;;;;2589602;53;21276;-72
2020/12/04 00:53:40;;;;;;;6.12;3.85;;;8.00;66.00;;;;;;2336390;53;21048;-72
2020/12/04 00:56:07;;;;;;;7.25;4.20;;;7.90;66.10;;;;;;2317476;53;20944;-72
2020/12/04 00:58:33;;;;;;;6.43;4.15;;;7.90;66.20;;;;;;2338807;54;20996;-72
2020/12/04 01:01:00;;;;;;;7.45;4.32;;;7.80;66.10;;;;;;2566807;53;20980;-72
2020/12/04 01:03:27;;;;;;;7.18;4.32;;;7.80;66.20;;;;;;2560511;53;20921;-72
2020/12/04 01:05:54;;;;;;;6.97;4.00;;;7.70;66.20;;;;;;2585598;53;20997;-71
2020/12/04 01:08:20;;;;;;;6.95;4.20;;;7.70;66.30;;;;;;2587311;53;21012;-71
2020/12/04 01:10:47;;;;;;;7.00;3.55;;;7.70;66.40;;;;;;2573373;53;20953;-71
2020/12/04 01:13:15;;;;;;;6.25;3.58;;;7.70;66.60;;;;;;2341613;53;20964;-72
2020/12/04 01:15:41;;;;;;;6.55;4.10;;;7.70;66.70;;;;;;2581548;53;20952;-72
2020/12/04 01:18:08;;;;;;;6.43;3.70;;;7.70;66.70;;;;;;2344246;53;20934;-71
2020/12/04 01:20:43;;;;;;;6.95;3.90;;;7.60;66.70;;;;;;2343596;53;21821;-72
2020/12/04 01:23:12;;;;;;;6.68;4.25;;;7.60;66.80;;;;;;2318074;53;21806;-71
2020/12/04 01:25:39;;;;;;;6.10;3.45;;;7.60;66.80;;;;;;2321311;53;20980;-72
2020/12/04 01:28:05;;;;;;;6.53;3.55;;;7.60;66.80;;;;;;2311957;54;20947;-71
2020/12/04 01:30:31;;;;;;;5.68;3.37;;;7.50;66.90;;;;;;2555859;54;20930;-72
2020/12/04 01:33:04;;;;;;;6.68;4.03;;;7.50;67.00;;;;;;2555451;54;20913;-72
2020/12/04 01:35:30;;;;;;;;;;;7.50;67.00;;;;;;2331427;53;21006;-72
2020/12/04 01:37:59;;;;;;;7.10;4.30;;;7.50;65.90;;;;;;2340617;53;20647;-72
2020/12/04 01:40:28;;;;;;;8.43;5.05;;;7.50;67.00;;;;;;2341659;53;20992;-72
2020/12/04 01:42:54;;;;;;;10.45;5.35;;;7.50;67.20;;;;;;2583264;53;21558;-71
2020/12/04 01:45:20;;;;;;;13.35;7.03;;;7.50;67.30;;;;;;2334898;53;21028;-71
2020/12/04 01:47:47;;;;;;;12.68;7.05;;;7.50;67.40;;;;;;2328005;53;20931;-72
2020/12/04 01:50:13;;;;;;;11.10;6.22;;;7.50;67.50;;;;;;2337457;55;20914;-71
2020/12/04 01:52:41;;;;;;;10.45;6.47;;;7.50;67.70;;;;;;2583322;53;21408;-72
2020/12/04 01:55:10;;;;;;;10.30;5.85;;;7.50;67.60;;;;;;2339070;54;20893;-71
2020/12/04 01:57:39;;;;;;;10.82;6.37;;;7.40;67.50;;;;;;2338295;55;20963;-72
2020/12/04 02:00:05;;;;;;;8.77;5.25;;;7.40;67.50;;;;;;2341959;53;21000;-71
2020/12/04 02:02:32;;;;;;;8.02;4.60;;;7.40;67.50;;;;;;2337351;53;20959;-71
2020/12/04 02:04:58;;;;;;;7.32;4.47;;;7.50;67.70;;;;;;2337844;53;20943;-71
2020/12/04 02:10:52;;;;;;;6.50;3.70;;;7.40;67.70;;;;;;2346052;53;21024;-72
2020/12/04 02:13:18;;;;;;;7.72;4.20;;;7.50;66.70;;;;;;2337667;55;20922;-71
2020/12/04 02:15:46;;;;;;;7.28;4.10;;;7.50;67.80;;;;;;2584610;53;20979;-72
2020/12/04 02:18:15;;;;;;;9.13;4.90;;;7.50;67.70;;;;;;2337978;53;20952;-71
2020/12/04 02:20:41;;;;;;;7.53;4.60;;;7.50;67.60;;;;;;2591560;53;21504;-72
2020/12/04 02:23:11;;;;;;;6.10;3.90;;;7.40;67.60;;;;;;2589419;53;20948;-71
2020/12/04 02:25:37;;;;;;;8.18;4.68;;;7.40;67.60;;;;;;2348144;53;20971;-71
2020/12/04 02:28:04;;;;;;;8.77;4.82;;;7.40;67.70;;;;;;2325063;54;20948;-71
2020/12/04 02:30:34;;;;;;;8.27;4.60;;;7.40;67.70;;;;;;2347246;53;21034;-71
2020/12/04 02:33:01;;;;;;;8.10;4.05;;;7.40;67.70;;;;;;2328965;53;20944;-72
2020/12/04 02:35:28;;;;;;;7.43;4.10;;;7.40;67.90;;;;;;2590097;53;20941;-72
2020/12/04 02:37:54;;;;;;;8.38;4.70;;;7.40;68.00;;;;;;2351462;53;20944;-72
2020/12/04 02:40:23;;;;;;;8.20;4.90;;;7.40;68.00;;;;;;2330225;53;20948;-71
2020/12/04 02:42:50;;;;;;;7.72;4.85;;;7.40;68.00;;;;;;2589199;53;20972;-72
2020/12/04 02:45:19;;;;;;;6.68;4.12;;;7.40;67.90;;;;;;2343374;53;21019;-72
2020/12/04 02:48:03;;;;;;;10.25;5.70;;;7.40;68.00;;;;;;2562026;53;21890;-71
2020/12/04 02:50:30;;;;;;;8.60;5.22;;;7.40;67.50;;;;;;2342161;53;21660;-71
2020/12/04 02:52:56;;;;;;;8.10;4.95;;;7.40;68.00;;;;;;2342939;53;21016;-71
2020/12/04 02:55:23;;;;;;;6.55;4.30;;;7.40;68.00;;;;;;2343489;53;20956;-71
2020/12/04 02:57:49;;;;;;;6.85;4.20;;;7.40;68.10;;;;;;2589432;53;21015;-72
2020/12/04 03:00:16;;;;;;;6.87;3.83;;;7.40;68.20;;;;;;2346951;53;20976;-71
2020/12/04 03:02:42;;;;;;;8.30;4.82;;;7.40;68.20;;;;;;2331408;53;21008;-72
2020/12/04 03:05:08;;;;;;;7.25;4.57;;;7.40;68.30;;;;;;2580462;53;21000;-72
2020/12/04 03:07:37;;;;;;;9.70;5.60;;;7.40;68.40;;;;;;2342998;53;21781;-72
2020/12/04 03:10:06;;;;;;;8.05;5.20;;;7.40;68.40;;;;;;2342737;53;21016;-71
2020/12/04 03:12:42;;;;;;;8.55;5.10;;;7.50;68.30;;;;;;2589659;53;21024;-71
2020/12/04 03:15:09;;;;;;;10.27;5.97;;;7.50;68.10;;;;;;2347534;53;21714;-71
2020/12/04 03:17:35;;;;;;;10.07;6.18;;;7.50;68.40;;;;;;2589633;53;21048;-71
2020/12/04 03:20:02;;;;;;;9.52;5.40;;;7.50;68.30;;;;;;2588513;53;20949;-71
2020/12/04 03:22:29;;;;;;;11.82;5.57;;;7.50;68.40;;;;;;2589901;53;20943;-71
2020/12/04 03:24:56;;;;;;;10.07;5.60;;;7.50;68.50;;;;;;2329006;53;21939;-71
2020/12/04 03:27:22;;;;;;;8.57;5.60;;;7.60;68.80;;;;;;2588306;53;20968;-71
2020/12/04 03:29:48;;;;;;;8.32;5.10;;;7.60;68.40;;;;;;2590977;53;21063;-72
2020/12/04 03:32:17;;;;;;;7.28;4.25;;;7.60;68.50;;;;;;2325508;53;20916;-73
2020/12/04 03:34:44;;;;;;;4.30;2.50;;;7.70;68.70;;;;;;2347169;53;20929;-73
2020/12/04 03:37:10;;;;;;;6.15;2.75;;;7.80;69.30;;;;;;2588729;53;21315;-71
2020/12/04 03:39:37;;;;;;;4.18;2.00;;;7.90;69.10;;;;;;2351485;53;21061;-72
2020/12/04 03:42:04;;;;;;;3.30;1.58;;;8.20;68.10;;;;;;2336052;53;20948;-72
2020/12/04 03:44:30;;;;;;;3.00;1.40;;;8.40;68.00;;;;;;2342679;53;20957;-72
2020/12/04 03:46:57;;;;;;;2.70;1.20;;;8.60;69.20;;;;;;2590706;53;21425;-72
2020/12/04 03:49:24;;;;;;;3.00;1.40;;;8.90;68.80;;;;;;2342796;53;21552;-72
2020/12/04 03:51:50;;;;;;;3.10;1.40;;;9.10;68.20;;;;;;2346839;53;20996;-72
2020/12/04 03:54:17;;;;;;;3.45;1.20;;;9.40;66.80;;;;;;2343207;53;21123;-72
2020/12/04 03:56:44;;;;;;;2.90;1.30;;;9.60;67.50;;;;;;2350725;53;20990;-72
2020/12/04 03:59:10;;;;;;;3.50;1.77;;;9.80;66.00;;;;;;2339765;53;20992;-73
2020/12/04 04:01:36;;;;;;;2.87;1.30;;;10.00;65.10;;;;;;2589108;53;20980;-72
2020/12/04 04:04:03;;;;;;;2.78;1.42;;;10.10;64.70;;;;;;2343091;53;20944;-72
2020/12/04 04:06:29;;;;;;;3.10;1.33;;;10.20;63.30;;;;;;2590030;53;20976;-72
2020/12/04 04:08:56;;;;;;;4.12;1.80;;;10.40;64.10;;;;;;2324367;55;20977;-72
2020/12/04 04:11:22;;;;;;;3.03;1.37;;;10.50;64.00;;;;;;2344004;53;20951;-72
2020/12/04 04:14:28;;;;;;;2.25;1.25;;;10.50;63.20;;;;;;2347272;53;21790;-72
2020/12/04 04:16:55;;;;;;;3.47;1.70;;;10.60;63.10;;;;;;2590963;53;21092;-72
2020/12/04 04:19:21;;;;;;;2.75;1.50;;;10.70;61.90;;;;;;2343305;53;21054;-72
2020/12/04 04:21:48;;;;;;;2.95;1.30;;;10.70;61.60;;;;;;2343791;53;20952;-72
2020/12/04 04:24:14;;;;;;;3.30;1.35;;;10.70;62.10;;;;;;2344082;53;20964;-72
2020/12/04 04:26:40;;;;;;;6.68;1.75;;;10.80;61.90;;;;;;2589833;53;21441;-72
2020/12/04 04:29:07;;;;;;;4.80;1.55;;;10.80;59.70;;;;;;2343081;53;20997;-72
2020/12/04 04:31:33;;;;;;;3.25;1.35;;;10.80;60.10;;;;;;2589979;53;20904;-72
2020/12/04 04:34:00;;;;;;;2.70;1.33;;;10.80;61.70;;;;;;2346926;53;20948;-72
2020/12/04 04:36:27;;;;;;;2.17;1.05;;;10.80;62.30;;;;;;2347205;53;20940;-72
2020/12/04 04:38:53;;;;;;;2.85;1.30;;;10.90;62.20;;;;;;2336033;53;21000;-72
2020/12/04 04:41:20;;;;;;;3.55;1.30;;;10.90;62.60;;;;;;2342894;53;20936;-72
2020/12/04 04:43:47;;;;;;;2.95;1.27;;;10.90;62.50;;;;;;2346167;53;21033;-72
2020/12/04 04:47:47;;;;;;;3.40;1.10;;;10.90;62.30;;;;;;2342744;53;21044;-71
2020/12/04 04:50:13;;;;;;;2.92;1.05;;;11.00;61.30;;;;;;2350602;53;20952;-72
2020/12/04 04:52:40;;;;;;;3.10;1.20;;;10.90;62.40;;;;;;2334413;53;20944;-71
2020/12/04 04:55:06;;;;;;;2.03;0.93;;;10.90;62.20;;;;;;2588797;53;20992;-71
2020/12/04 04:57:32;;;;;;;2.40;1.00;;;10.90;62.50;;;;;;2343443;53;21489;-71
2020/12/04 05:00:00;;;;;;;2.90;0.95;;;11.00;62.80;;;;;;2587521;53;20973;-72
2020/12/04 05:02:26;;;;;;;1.98;0.80;;;11.00;63.30;;;;;;2567033;53;20985;-72
2020/12/04 05:04:55;;;;;;;1.08;0.50;;;11.00;63.60;;;;;;2342896;53;20972;-72
2020/12/04 05:07:54;;;;;;;2.42;0.75;;;11.00;64.00;;;;;;2589896;53;20936;-71
2020/12/04 05:10:21;;;;;;;1.52;0.70;;;11.00;63.00;;;;;;2346333;53;20952;-72
2020/12/04 05:13:00;;;;;;;1.62;0.73;;;11.00;63.70;;;;;;2588601;53;21253;-72
2020/12/04 05:15:27;;;;;;;1.83;0.70;;;11.00;63.40;;;;;;2347076;53;20976;-71
2020/12/04 05:18:05;;;;;;;1.75;0.62;;;11.00;64.00;;;;;;2343298;53;20952;-71
2020/12/04 05:20:32;;;;;;;2.53;0.82;;;11.00;63.80;;;;;;2350704;53;20981;-71
2020/12/04 05:23:01;;;;;;;1.60;0.70;;;11.00;64.00;;;;;;2582178;53;20953;-72
2020/12/04 05:25:32;;;;;;;1.35;0.50;;;11.00;64.10;;;;;;2343272;53;21033;-72
2020/12/04 05:28:10;;;;;;;0.90;0.40;;;11.00;64.30;;;;;;2588809;53;20932;-71
2020/12/04 05:30:36;;;;;;;2.62;1.10;;;11.00;64.40;;;;;;2347377;53;20941;-72
2020/12/04 05:33:04;;;;;;;1.77;0.82;;;11.00;64.30;;;;;;2344169;53;21020;-72
2020/12/04 05:35:33;;;;;;;1.17;0.60;;;10.90;64.60;;;;;;2346725;53;21058;-71
2020/12/04 05:38:32;;;;;;;1.10;0.50;;;11.00;64.90;;;;;;2589875;53;21460;-71
2020/12/04 05:41:43;;;;;;;1.05;0.50;;;11.00;64.10;;;;;;2342639;53;21076;-70
2020/12/04 05:44:10;;;;;;;2.03;0.80;;;11.00;64.50;;;;;;2349399;53;20973;-71
2020/12/04 05:46:36;;;;;;;1.95;0.70;;;11.00;65.10;;;;;;2343265;53;20952;-71
2020/12/04 05:49:08;;;;;;;2.42;0.70;;;11.00;65.10;;;;;;2347539;53;21000;-71
2020/12/04 05:51:38;;;;;;;1.45;0.55;;;11.00;65.10;;;;;;2324012;53;21008;-71
2020/12/04 05:54:07;;;;;;;4.95;2.22;;;11.00;65.00;;;;;;2344169;53;20964;-71
2020/12/04 05:56:33;;;;;;;6.00;2.50;;;11.00;64.90;;;;;;2347082;53;20924;-71
2020/12/04 05:59:08;;;;;;;4.95;1.87;;;11.00;64.80;;;;;;2342737;53;20991;-72
2020/12/04 06:01:35;;;;;;;3.05;1.40;;;11.00;64.70;;;;;;2338706;53;20960;-72
2020/12/04 06:04:01;;;;;;;14.73;6.10;;;11.00;64.70;;;;;;2589772;53;21786;-71
2020/12/04 06:06:29;;;;;;;7.95;3.42;;;11.00;65.00;;;;;;2590840;53;21477;-71
2020/12/04 06:09:07;;;;;;;5.22;2.30;;;11.00;65.00;;;;;;2333028;53;21557;-71
2020/12/04 06:11:46;;;;;;;3.40;1.50;;;11.10;64.90;;;;;;2336046;53;20983;-71
2020/12/04 06:14:15;;;;;;;1.98;0.75;;;11.00;64.60;;;;;;2589505;53;20913;-71
2020/12/04 06:16:42;;;;;;;1.23;0.50;;;11.10;65.10;;;;;;2575204;53;21032;-71
2020/12/04 06:19:47;;;;;;;1.10;0.50;;;11.10;65.30;;;;;;2342711;53;20952;-71
2020/12/04 06:22:17;;;;;;;1.85;0.80;;;11.10;64.30;;;;;;2347196;53;21087;-71
2020/12/04 06:30:39;;;;;;;1.37;0.60;;;11.10;64.90;;;;;;2589833;53;22173;-71
2020/12/04 06:33:05;;;;;;;2.08;0.80;;;11.20;64.20;;;;;;2345753;53;20973;-71
2020/12/04 06:35:43;;;;;;;2.55;0.98;;;11.20;65.00;;;;;;2346071;53;21027;-71
2020/12/04 06:41:44;;;;;;;2.67;1.02;;;11.20;64.50;;;;;;2324885;53;21044;-71
2020/12/04 06:47:44;;;;;;;1.98;0.70;;;11.30;64.50;;;;;;2590163;53;21061;-71
2020/12/04 06:50:11;;;;;;;3.15;0.82;;;11.30;65.00;;;;;;2580704;53;21462;-71
2020/12/04 06:52:38;;;;;;;2.85;1.08;;;11.30;64.70;;;;;;2342277;53;21871;-71
2020/12/04 06:55:25;;;;;;;2.28;0.82;;;11.30;64.30;;;;;;2588398;53;20984;-72
2020/12/04 06:57:58;;;;;;;2.37;1.00;;;11.30;63.30;;;;;;2318946;53;21039;-71
2020/12/04 07:00:25;;;;;;;3.92;1.62;;;11.30;63.90;;;;;;2535934;53;21982;-71
2020/12/04 07:02:51;;;;;;;5.95;1.50;;;11.30;63.80;;;;;;2583115;53;20918;-72
2020/12/04 07:05:23;;;;;;;3.17;1.10;;;11.30;63.30;;;;;;2327389;54;20962;-72
2020/12/04 07:07:49;;;;;;;2.78;0.98;;;11.20;63.50;;;;;;2572592;53;21084;-72
2020/12/04 07:10:15;;;;;;;4.50;2.05;;;11.20;63.90;;;;;;2342877;53;20952;-72
2020/12/04 07:12:42;;;;;;;4.65;1.85;;;11.20;63.10;;;;;;2337095;53;22090;-72
2020/12/04 07:15:08;;;;;;;2.92;1.15;;;11.20;63.40;;;;;;2307246;53;21515;-72
2020/12/04 07:17:35;;;;;;;2.17;0.98;;;11.20;63.80;;;;;;2550236;53;20901;-72
2020/12/04 07:20:02;;;;;;;2.53;1.20;;;11.10;63.10;;;;;;2319622;53;22598;-71
2020/12/04 07:22:28;;;;;;;3.15;1.10;;;11.10;63.10;;;;;;2338849;53;21032;-72
2020/12/04 07:24:55;;;;;;;2.53;0.98;;;11.00;62.90;;;;;;2558574;53;20952;-72
2020/12/04 07:27:36;;;;;;;2.42;1.05;;;10.90;62.70;;;;;;2335810;53;20998;-72
2020/12/04 07:30:15;;;;;;;2.33;0.90;;;10.90;62.60;;;;;;2333612;53;20983;-72
2020/12/04 07:32:48;;;;;;;1.62;0.80;;;10.80;62.60;;;;;;2345555;53;21492;-71
2020/12/04 07:35:18;;;;;;;1.52;0.60;;;10.70;62.80;;;;;;2590102;53;20956;-71
2020/12/04 07:37:44;;;;;;;2.25;0.75;;;10.70;63.40;;;;;;2347269;53;21024;-73
2020/12/04 07:40:13;;;;;;;2.03;0.70;;;10.60;63.30;;;;;;2348578;53;20931;-72
2020/12/04 07:42:41;;;;;;;1.35;0.68;;;10.60;63.70;;;;;;2322319;53;20928;-73
2020/12/04 07:45:15;;;;;;;1.50;0.60;;;10.50;63.60;;;;;;2343588;53;20992;-72
2020/12/04 07:47:42;;;;;;;1.48;0.60;;;10.50;63.70;;;;;;2347769;53;21032;-72
2020/12/04 07:50:12;;;;;;;1.77;0.57;;;10.40;64.00;;;;;;2588820;53;22098;-73
2020/12/04 07:52:49;;;;;;;1.35;0.60;;;10.40;64.40;;;;;;2588813;53;21449;-73
2020/12/04 07:55:17;;;;;;;1.25;0.50;;;10.40;64.60;;;;;;2590043;53;21032;-72
2020/12/04 07:58:04;;;;;;;0.85;0.40;;;10.40;64.90;;;;;;2588157;53;20999;-73
2020/12/04 08:00:34;;;;;;;1.12;0.52;;;10.40;64.90;;;;;;2562074;53;20964;-73
2020/12/04 08:03:18;;;;;;;0.95;0.50;;;10.40;65.20;;;;;;2322752;54;20983;-73
2020/12/04 08:05:45;;;;;;;1.05;0.55;;;10.40;65.00;;;;;;2343455;53;20972;-72
2020/12/04 08:08:18;;;;;;;1.20;0.40;;;10.40;65.60;;;;;;2346288;53;20944;-71
2020/12/04 08:10:44;;;;;;;1.50;0.60;;;10.40;65.60;;;;;;2588672;53;20920;-72
2020/12/04 08:13:12;;;;;;;1.50;0.52;;;10.40;65.80;;;;;;2346521;53;20995;-72
2020/12/04 08:15:41;;;;;;;2.70;1.08;;;10.40;65.80;;;;;;2343366;53;20925;-72
2020/12/04 08:18:10;;;;;;;2.58;0.93;;;10.40;65.90;;;;;;2343324;53;21052;-71
2020/12/04 08:20:39;;;;;;;2.58;0.85;;;10.40;66.00;;;;;;2344616;53;21035;-72
2020/12/04 08:23:05;;;;;;;1.98;0.90;;;10.50;66.10;;;;;;2318701;53;20987;-72
2020/12/04 08:25:31;;;;;;;2.33;0.90;;;10.50;66.10;;;;;;2317851;53;20967;-72
2020/12/04 08:27:58;;;;;;;2.08;0.70;;;10.50;66.20;;;;;;2330981;53;22328;-72
2020/12/04 08:30:27;;;;;;;1.55;0.70;;;10.50;66.30;;;;;;2582700;53;21015;-72
2020/12/04 08:33:06;;;;;;;2.62;1.00;;;10.50;66.30;;;;;;2337755;55;20994;-72
2020/12/04 08:35:34;;;;;;;2.35;1.20;;;10.50;66.20;;;;;;2583042;53;21477;-72
2020/12/04 08:38:13;;;;;;;2.80;1.20;;;10.60;66.60;;;;;;2340214;53;20928;-72
2020/12/04 08:40:40;;;;;;;3.12;1.30;;;10.60;66.30;;;;;;2318346;54;20959;-72
2020/12/04 08:43:18;;;;;;;3.30;1.40;;;10.60;66.60;;;;;;2582536;53;21505;-72
2020/12/04 08:45:48;;;;;;;3.72;1.77;;;10.60;66.40;;;;;;2583273;53;21706;-72
2020/12/04 08:48:19;;;;;;;3.25;1.42;;;10.60;66.60;;;;;;2338018;55;21015;-72
2020/12/04 08:50:53;;;;;;;3.30;1.37;;;10.60;66.70;;;;;;2336972;53;21891;-72
2020/12/04 08:53:20;;;;;;;3.10;1.33;;;10.60;66.80;;;;;;2583168;53;21012;-72
2020/12/04 08:55:53;;;;;;;4.43;1.52;;;10.60;66.90;;;;;;2338786;55;21432;-72
2020/12/04 08:58:21;;;;;;;5.82;1.77;;;10.70;67.00;;;;;;2337533;55;20919;-72
2020/12/04 09:00:48;;;;;;;5.87;2.72;;;10.70;67.10;;;;;;2583067;53;21007;-72
2020/12/04 09:03:14;;;;;;;5.47;2.40;;;10.70;67.10;;;;;;2341083;53;20953;-72
2020/12/04 09:05:41;;;;;;;6.95;2.87;;;10.70;67.10;;;;;;2583765;53;20912;-72
2020/12/04 09:08:07;;;;;;;5.22;2.40;;;10.70;67.20;;;;;;2338993;54;20998;-72
2020/12/04 09:10:34;;;;;;;3.83;1.80;;;10.70;67.30;;;;;;2583458;53;20968;-72
2020/12/04 09:13:01;;;;;;;3.78;1.70;;;10.70;67.30;;;;;;2341512;53;21025;-72
2020/12/04 09:15:27;;;;;;;3.40;1.52;;;10.70;67.40;;;;;;2583930;53;20947;-72
2020/12/04 09:17:56;;;;;;;3.10;1.45;;;10.70;67.50;;;;;;2582546;53;20928;-72
2020/12/04 09:20:24;;;;;;;3.95;1.95;;;10.80;67.60;;;;;;2337442;53;20895;-72
2020/12/04 09:22:55;;;;;;;3.47;1.85;;;10.70;67.60;;;;;;2338175;54;20939;-72
2020/12/04 09:25:23;;;;;;;4.10;2.20;;;10.80;67.70;;;;;;2338280;55;21014;-72
2020/12/04 09:27:52;;;;;;;5.07;2.87;;;10.80;67.80;;;;;;2338015;55;20935;-72
2020/12/04 09:30:20;;;;;;;4.22;2.45;;;10.80;67.90;;;;;;2331000;53;21086;-72
2020/12/04 09:32:47;;;;;;;3.40;1.83;;;10.80;68.00;;;;;;2341548;53;20940;-72
2020/12/04 09:35:16;;;;;;;4.60;2.37;;;10.90;68.20;;;;;;2570899;53;21106;-72
2020/12/04 09:37:44;;;;;;;4.57;2.47;;;10.90;68.20;;;;;;2582623;53;20967;-72
2020/12/04 09:40:18;;;;;;;4.25;2.42;;;10.90;68.40;;;;;;2337544;54;20915;-72
2020/12/04 09:42:44;;;;;;;3.83;1.85;;;11.00;68.40;;;;;;2555841;53;20924;-72
2020/12/04 09:45:13;;;;;;;3.95;2.17;;;11.00;68.50;;;;;;2338713;55;20947;-72
2020/12/04 09:47:40;;;;;;;3.90;1.77;;;11.00;68.60;;;;;;2341025;54;21058;-72
2020/12/04 09:50:11;;;;;;;3.35;1.50;;;11.00;68.50;;;;;;2337623;53;21058;-72
2020/12/04 09:52:38;;;;;;;3.22;1.35;;;11.10;68.60;;;;;;2340626;53;22094;-72
2020/12/04 09:55:06;;;;;;;2.60;1.30;;;11.10;68.60;;;;;;2583629;53;21389;-72
2020/12/04 09:57:34;;;;;;;2.95;1.30;;;11.10;68.50;;;;;;2342740;53;21082;-72
2020/12/04 10:00:05;;;;;;;2.10;0.90;;;11.10;68.30;;;;;;2572489;53;20965;-72
2020/12/04 10:02:34;;;;;;;2.30;0.93;;;11.20;67.90;;;;;;2338097;53;20923;-71
2020/12/04 10:05:02;;;;;;;2.00;0.70;;;11.20;67.90;;;;;;2338118;55;21381;-71
2020/12/04 10:07:30;;;;;;;2.20;0.82;;;11.20;67.90;;;;;;2338906;53;21104;-72
2020/12/04 10:09:57;;;;;;;2.08;0.93;;;11.20;67.80;;;;;;2337533;53;20990;-72
2020/12/04 10:12:23;;;;;;;5.20;2.67;;;11.20;67.70;;;;;;2341153;53;20944;-72
2020/12/04 10:14:49;;;;;;;5.70;2.80;;;11.10;67.60;;;;;;2338677;55;20970;-73
2020/12/04 10:17:18;;;;;;;4.20;1.75;;;11.10;67.60;;;;;;2582865;53;20968;-72
2020/12/04 10:19:45;;;;;;;3.70;1.70;;;11.10;67.60;;;;;;2582906;53;20958;-72
2020/12/04 10:22:11;;;;;;;4.70;1.62;;;11.10;67.70;;;;;;2344246;53;21015;-71
2020/12/04 10:24:38;;;;;;;3.00;1.48;;;11.10;67.80;;;;;;2577918;53;21016;-72
2020/12/04 10:27:04;;;;;;;2.97;1.20;;;11.10;67.80;;;;;;2346017;53;21002;-72
2020/12/04 10:29:33;;;;;;;2.33;1.15;;;11.10;67.90;;;;;;2335119;53;20983;-72
2020/12/04 10:32:00;;;;;;;2.78;1.30;;;11.10;67.80;;;;;;2337293;53;20927;-71
2020/12/04 10:34:26;;;;;;;3.78;1.30;;;11.10;67.70;;;;;;2583647;53;20888;-72
2020/12/04 10:36:53;;;;;;;3.25;1.50;;;11.10;67.40;;;;;;2322275;55;21779;-72
2020/12/04 10:39:20;;;;;;;3.40;1.52;;;11.10;67.20;;;;;;2332269;53;20894;-72
2020/12/04 10:41:46;;;;;;;2.92;1.52;;;11.10;67.30;;;;;;2341033;53;21004;-72
2020/12/04 10:44:13;;;;;;;4.03;1.85;;;11.10;67.50;;;;;;2563352;53;20993;-72
2020/12/04 10:46:40;;;;;;;3.60;2.00;;;11.10;67.30;;;;;;2583681;53;21052;-72
2020/12/04 10:49:11;;;;;;;3.50;1.65;;;11.00;67.10;;;;;;2334642;53;21090;-73
2020/12/04 10:51:39;;;;;;;4.75;1.98;;;11.00;66.90;;;;;;2582928;53;20935;-73
2020/12/04 10:54:07;;;;;;;3.47;1.77;;;11.00;66.90;;;;;;2338090;55;20947;-72
2020/12/04 10:56:34;;;;;;;3.78;1.65;;;10.90;67.10;;;;;;2583650;53;20911;-72
2020/12/04 10:59:00;;;;;;;3.22;1.40;;;10.90;67.00;;;;;;2341567;53;20968;-71
2020/12/04 11:01:31;;;;;;;3.42;1.80;;;10.90;67.10;;;;;;2342409;53;20961;-71
2020/12/04 11:06:43;;;;;;;4.25;2.45;;;10.80;66.80;;;;;;2337116;53;20947;-72
2020/12/04 11:09:09;;;;;;;5.12;2.50;;;10.80;66.50;;;;;;2582786;53;21010;-72
2020/12/04 11:11:36;;;;;;;4.15;2.47;;;10.80;66.60;;;;;;2337522;55;20899;-72
2020/12/04 11:14:02;;;;;;;3.60;2.08;;;10.70;66.40;;;;;;2582545;53;21024;-72
2020/12/04 11:16:29;;;;;;;3.72;2.08;;;10.70;66.40;;;;;;2337839;53;20959;-72
2020/12/04 11:18:56;;;;;;;3.72;1.80;;;10.70;66.70;;;;;;2583547;53;20919;-72
2020/12/04 11:21:26;;;;;;;3.55;1.67;;;10.60;66.60;;;;;;2342611;53;20968;-72
2020/12/04 11:23:53;;;;;;;3.90;1.75;;;10.60;66.60;;;;;;2338142;53;20935;-72
2020/12/04 11:26:21;;;;;;;3.55;1.67;;;10.60;66.70;;;;;;2338173;55;20927;-72
2020/12/04 11:28:47;;;;;;;2.87;1.25;;;10.60;66.60;;;;;;2342098;53;20992;-72
2020/12/04 11:31:14;;;;;;;4.45;1.30;;;10.60;66.70;;;;;;2341657;53;21737;-71
2020/12/04 11:33:40;;;;;;;3.72;2.05;;;10.50;66.70;;;;;;2569910;53;20957;-71
2020/12/04 11:36:07;;;;;;;3.67;1.92;;;10.50;66.60;;;;;;2338605;55;20919;-71
2020/12/04 11:38:33;;;;;;;3.80;1.80;;;10.50;66.60;;;;;;2575948;53;20900;-71
2020/12/04 11:40:59;;;;;;;4.32;1.85;;;10.50;66.50;;;;;;2324393;53;22201;-71
2020/12/04 11:43:26;;;;;;;6.65;2.40;;;10.40;66.40;;;;;;2320369;53;20966;-71
2020/12/04 11:45:52;;;;;;;4.40;1.77;;;10.40;66.30;;;;;;2337210;55;20967;-72
2020/12/04 11:48:19;;;;;;;3.40;1.40;;;10.40;66.50;;;;;;2337979;54;20923;-72
2020/12/04 11:50:47;;;;;;;5.25;2.37;;;10.40;66.60;;;;;;2337440;54;20935;-72
2020/12/04 11:53:14;;;;;;;7.72;2.90;;;10.30;66.70;;;;;;2582478;53;20973;-71
2020/12/04 11:55:40;;;;;;;4.22;1.87;;;10.30;67.50;;;;;;2329891;53;21008;-72
2020/12/04 11:58:07;;;;;;;4.62;2.00;;;10.30;67.00;;;;;;2569490;53;20907;-72
2020/12/04 12:00:35;;;;;;;3.72;1.67;;;10.20;66.80;;;;;;2582967;53;21373;-72
2020/12/04 12:03:02;;;;;;;3.03;1.10;;;10.20;66.50;;;;;;2335987;53;20907;-72
2020/12/04 12:05:28;;;;;;;2.95;1.30;;;10.20;66.80;;;;;;2339010;54;20979;-72
2020/12/04 12:07:54;;;;;;;3.15;1.20;;;10.20;67.00;;;;;;2338215;55;20931;-71
2020/12/04 12:10:21;;;;;;;4.30;1.45;;;10.20;66.90;;;;;;2583759;53;20976;-72
2020/12/04 12:12:50;;;;;;;3.55;1.65;;;10.20;67.00;;;;;;2319049;53;20960;-72
2020/12/04 12:15:16;;;;;;;3.05;1.37;;;10.20;66.80;;;;;;2338566;55;20927;-72
2020/12/04 12:17:42;;;;;;;2.62;1.20;;;10.20;66.90;;;;;;2338826;54;20974;-72
2020/12/04 12:20:09;;;;;;;2.65;1.20;;;10.20;67.00;;;;;;2338647;55;20923;-72
2020/12/04 12:22:38;;;;;;;3.20;1.10;;;10.20;67.10;;;;;;2338857;55;20927;-72
2020/12/04 12:25:05;;;;;;;2.20;0.90;;;10.20;67.00;;;;;;2338488;55;21365;-72
2020/12/04 12:27:31;;;;;;;1.98;0.85;;;10.20;67.20;;;;;;2584309;53;20888;-72
2020/12/04 12:29:57;;;;;;;2.35;0.90;;;10.20;67.20;;;;;;2584005;53;21016;-72
2020/12/04 12:32:25;;;;;;;1.98;0.88;;;10.20;67.20;;;;;;2584201;53;21817;-72
2020/12/04 12:35:01;;;;;;;2.17;1.05;;;10.20;67.10;;;;;;2569800;53;20974;-72
2020/12/04 12:37:30;;;;;;;2.40;0.85;;;10.20;67.00;;;;;;2338138;55;21484;-71
2020/12/04 12:39:59;;;;;;;7.07;1.00;;;10.20;67.00;;;;;;2337508;55;21077;-71
2020/12/04 12:42:29;;;;;;;2.05;0.88;;;10.30;67.20;;;;;;2339885;53;21016;-71
2020/12/04 12:44:55;;;;;;;2.47;1.00;;;10.20;67.00;;;;;;2583529;53;20930;-72
2020/12/04 12:47:22;;;;;;;2.28;0.98;;;10.20;67.10;;;;;;2337428;55;20907;-72
2020/12/04 12:49:48;;;;;;;2.85;1.20;;;10.10;67.00;;;;;;2336380;53;20895;-72
2020/12/04 12:52:16;;;;;;;2.05;0.90;;;10.20;67.10;;;;;;2337696;54;20872;-72
2020/12/04 12:54:44;;;;;;;2.83;1.20;;;10.20;67.20;;;;;;2584486;53;21379;-72
2020/12/04 12:57:11;;;;;;;2.40;1.05;;;10.20;67.10;;;;;;2345350;53;20966;-72
2020/12/04 12:59:37;;;;;;;2.90;1.40;;;10.20;67.20;;;;;;2582321;53;20879;-72
2020/12/04 13:02:03;;;;;;;3.10;1.40;;;10.20;67.10;;;;;;2338079;55;20990;-72
2020/12/04 13:04:30;;;;;;;2.75;1.15;;;10.20;67.30;;;;;;2583941;53;21042;-72
2020/12/04 13:06:57;;;;;;;3.83;1.40;;;10.20;67.30;;;;;;2338654;55;20927;-72
2020/12/04 13:09:23;;;;;;;4.28;2.03;;;10.20;67.50;;;;;;2583711;53;21694;-72
2020/12/04 13:11:50;;;;;;;3.42;1.60;;;10.20;67.50;;;;;;2338685;55;20895;-72
2020/12/04 13:14:16;;;;;;;3.60;1.75;;;10.20;67.60;;;;;;2338494;55;20963;-72
2020/12/04 13:16:44;;;;;;;4.53;1.87;;;10.20;67.60;;;;;;2341507;55;20969;-72
2020/12/04 13:19:14;;;;;;;3.97;1.90;;;10.20;68.20;;;;;;2583260;53;20966;-72